Time;durP1;ratioP1;P1;durP2;ratioP2;P2;SDS_P1;SDS_P2;PMS_P1;PMS_P2;Temp;Humidity;BMP_temperature;BMP_pressure;BME280_temperature;BME280_humidity;BME280_pressure;Samples;Min_cycle;Max_cycle;Signal;HPM_P1;HPM_P2
2022/05/17 00:01:50;;;;;;;2.15;1.85;;;;;;;9.81;49.36;100330.55;1723288;82;21078;-68
2022/05/17 00:04:16;;;;;;;3.60;1.45;;;;;;;9.84;49.59;100327.53;1722699;82;21057;-68
2022/05/17 00:06:42;;;;;;;5.60;2.15;;;;;;;9.87;49.59;100328.00;1723038;82;21108;-68
2022/05/17 00:09:08;;;;;;;4.33;1.67;;;;;;;9.89;49.78;100319.83;1729437;82;21125;-69
2022/05/17 00:11:36;;;;;;;5.80;2.03;;;;;;;9.91;49.85;100320.47;1722536;82;21146;-69
2022/05/17 00:14:02;;;;;;;5.80;2.17;;;;;;;9.92;49.78;100317.59;1713200;82;22156;-69
2022/05/17 00:16:29;;;;;;;5.87;2.10;;;;;;;9.88;49.84;100312.33;1722885;82;21033;-69
2022/05/17 00:18:55;;;;;;;6.15;2.08;;;;;;;9.97;49.67;100321.57;1722787;82;21022;-69
2022/05/17 00:21:21;;;;;;;2.87;1.77;;;;;;;10.01;49.55;100318.86;1720489;82;21067;-68
2022/05/17 00:23:49;;;;;;;3.17;1.32;;;;;;;10.03;49.61;100319.49;1690556;82;21079;-69
2022/05/17 00:26:15;;;;;;;5.27;2.20;;;;;;;10.03;49.72;100316.31;1717370;83;21129;-69
2022/05/17 00:28:42;;;;;;;4.33;1.80;;;;;;;10.04;49.71;100316.65;1706357;83;21054;-69
2022/05/17 00:31:10;;;;;;;3.67;1.73;;;;;;;10.06;49.93;100323.95;1702583;83;21057;-69
2022/05/17 00:33:37;;;;;;;;;;;;;;;10.07;49.91;100312.78;1670832;83;21016;-69
2022/05/17 00:36:04;;;;;;;2.97;1.93;;;;;;;10.09;49.78;100316.08;1662450;85;20198;-69
2022/05/17 00:38:34;;;;;;;5.93;1.93;;;;;;;10.08;49.71;100321.92;1738392;82;21638;-68
2022/05/17 00:41:01;;;;;;;3.07;2.10;;;;;;;10.12;49.83;100317.87;1746905;81;21545;-69
2022/05/17 00:46:28;;;;;;;4.47;2.60;;;;;;;10.21;49.47;100317.75;1721915;81;20988;-68
2022/05/17 00:48:58;;;;;;;3.22;1.67;;;;;;;10.24;49.81;100315.55;1703654;82;21022;-67
2022/05/17 00:51:28;;;;;;;4.97;2.40;;;;;;;10.28;49.67;100316.84;1701831;82;21339;-68
2022/05/17 00:54:00;;;;;;;5.00;2.73;;;;;;;10.32;49.14;100310.16;1717160;82;21021;-68
2022/05/17 00:56:27;;;;;;;5.80;4.63;;;;;;;10.40;49.50;100311.06;1680723;83;21067;-68
2022/05/17 00:58:58;;;;;;;5.90;3.07;;;;;;;10.46;49.58;100306.31;1675070;83;21096;-68
2022/05/17 01:01:29;;;;;;;4.50;3.53;;;;;;;10.50;49.61;100303.58;1688458;83;21573;-68
2022/05/17 01:04:05;;;;;;;6.80;4.10;;;;;;;10.54;48.91;100298.70;1693258;83;21033;-68
2022/05/17 01:06:52;;;;;;;7.87;5.40;;;;;;;10.59;48.92;100295.79;1686892;83;21022;-69
2022/05/17 01:09:21;;;;;;;7.47;4.20;;;;;;;10.64;48.95;100298.72;1682950;84;21162;-69
2022/05/17 01:11:49;;;;;;;6.47;4.70;;;;;;;10.70;48.76;100295.28;1678497;83;21045;-69
2022/05/17 01:17:04;;;;;;;11.23;8.80;;;;;;;10.77;48.83;100288.67;1664907;84;21088;-69
2022/05/17 01:19:32;;;;;;;12.53;7.23;;;;;;;10.80;48.24;100291.48;1663307;84;21135;-68
2022/05/17 01:21:58;;;;;;;13.77;8.13;;;;;;;10.84;48.15;100286.89;1663086;84;21022;-68
2022/05/17 01:24:25;;;;;;;13.22;8.88;;;;;;;10.89;47.62;100289.00;1682368;83;21077;-68
2022/05/17 01:27:08;;;;;;;16.70;8.73;;;;;;;10.91;47.50;100288.30;1698141;83;21054;-68
2022/05/17 01:29:43;;;;;;;17.90;10.67;;;;;;;10.94;47.37;100283.90;1702573;83;21081;-68
2022/05/17 01:32:12;;;;;;;14.30;9.50;;;;;;;10.96;47.44;100285.86;1701945;83;21058;-69
2022/05/17 01:34:39;;;;;;;15.17;10.07;;;;;;;10.99;47.09;100279.34;1708319;82;21092;-68
2022/05/17 01:37:08;;;;;;;14.73;8.75;;;;;;;11.01;47.00;100281.30;1724609;83;21077;-69
2022/05/17 01:39:35;;;;;;;13.87;8.70;;;;;;;11.03;46.62;100277.41;1727416;82;21077;-69
2022/05/17 01:42:04;;;;;;;12.57;7.83;;;;;;;11.08;46.22;100275.52;1725890;82;21096;-69
2022/05/17 01:44:31;;;;;;;9.67;6.40;;;;;;;11.13;45.55;100278.41;1714545;81;21495;-69
2022/05/17 01:46:58;;;;;;;9.13;5.10;;;;;;;11.17;44.77;100285.52;1695836;83;21034;-69
2022/05/17 01:49:24;;;;;;;7.73;5.23;;;;;;;11.20;44.63;100275.29;1708298;83;21062;-69
2022/05/17 01:51:51;;;;;;;;;;;;;;;11.26;44.10;100282.54;1700189;83;21039;-68
2022/05/17 01:54:17;;;;;;;8.13;4.63;;;;;;;11.28;43.83;100275.16;1697856;83;20130;-69
2022/05/17 01:56:43;;;;;;;8.15;4.60;;;;;;;11.26;43.74;100281.69;1716790;81;21094;-70
2022/05/17 01:59:10;;;;;;;7.00;4.23;;;;;;;11.27;43.56;100277.50;1746298;81;21003;-69
2022/05/17 02:01:36;;;;;;;3.77;3.20;;;;;;;11.27;43.33;100276.17;1696903;81;21499;-69
2022/05/17 02:04:02;;;;;;;5.05;3.17;;;;;;;11.27;42.95;100280.69;1688622;85;21026;-67
2022/05/17 02:06:29;;;;;;;7.97;2.70;;;;;;;11.26;42.87;100272.36;1688315;83;21138;-69
2022/05/17 02:08:55;;;;;;;4.70;2.65;;;;;;;11.27;42.85;100275.35;1688357;85;21100;-68
2022/05/17 02:11:21;;;;;;;4.85;2.30;;;;;;;11.26;42.78;100277.20;1694585;83;21606;-68
2022/05/17 02:13:47;;;;;;;2.83;1.98;;;;;;;11.26;42.50;100276.36;1707467;83;21027;-69
2022/05/17 02:16:14;;;;;;;;;;;;;;;11.23;42.39;100277.58;1662931;86;21054;-69
2022/05/17 02:18:41;;;;;;;2.45;1.20;;;;;;;11.21;42.32;100270.80;1643291;87;20194;-67
2022/05/17 02:21:09;;;;;;;2.08;0.93;;;;;;;11.14;42.38;100273.92;1714173;83;21022;-68
2022/05/17 02:23:36;;;;;;;6.50;1.20;;;;;;;11.12;42.40;100276.78;1693879;83;21528;-67
2022/05/17 02:26:02;;;;;;;3.05;0.65;;;;;;;11.10;42.39;100274.30;1709949;83;21022;-69
2022/05/17 02:28:29;;;;;;;3.90;1.07;;;;;;;11.08;42.10;100272.34;1678448;83;21041;-69
2022/05/17 02:30:56;;;;;;;1.47;0.60;;;;;;;11.04;41.89;100271.08;1708239;83;21593;-69
2022/05/17 02:33:22;;;;;;;0.82;0.72;;;;;;;11.00;41.75;100267.64;1698596;83;21056;-69
2022/05/17 02:35:48;;;;;;;1.32;0.65;;;;;;;11.00;41.87;100274.30;1694383;84;21029;-68
2022/05/17 02:38:15;;;;;;;2.35;0.78;;;;;;;11.00;42.01;100275.64;1689369;84;21142;-68
2022/05/17 02:40:42;;;;;;;3.97;0.40;;;;;;;10.99;41.49;100270.82;1680127;85;21099;-68
2022/05/17 02:43:13;;;;;;;3.25;0.60;;;;;;;11.00;41.50;100271.64;1691274;83;21098;-69
2022/05/17 02:45:40;;;;;;;1.63;0.50;;;;;;;11.01;41.77;100266.11;1693923;83;21041;-69
2022/05/17 02:48:07;;;;;;;0.50;0.20;;;;;;;11.03;41.66;100271.27;1660420;85;21070;-69
2022/05/17 02:50:33;;;;;;;1.00;0.20;;;;;;;11.05;41.49;100266.04;1648106;86;21054;-69
2022/05/17 02:52:59;;;;;;;1.57;0.53;;;;;;;11.13;41.70;100265.59;1638667;86;21553;-69
2022/05/17 02:55:25;;;;;;;2.12;0.30;;;;;;;11.27;41.55;100264.68;1652207;85;21050;-70
2022/05/17 02:57:53;;;;;;;1.87;0.57;;;;;;;11.64;40.28;100260.81;1644254;85;21078;-69
2022/05/17 03:00:19;;;;;;;1.92;0.37;;;;;;;12.20;39.59;100257.16;1680516;82;21102;-70
2022/05/17 03:02:46;;;;;;;0.60;0.10;;;;;;;12.87;38.56;100261.30;1695962;83;21120;-70
2022/05/17 03:05:13;;;;;;;1.37;0.20;;;;;;;13.36;37.37;100259.24;1733978;80;20987;-69
2022/05/17 03:07:39;;;;;;;0.68;0.20;;;;;;;13.51;36.19;100258.48;1732478;81;21054;-69
2022/05/17 03:10:06;;;;;;;;;;;;;;;13.47;36.88;100259.09;1733075;81;21188;-70
2022/05/17 03:12:34;;;;;;;0.90;0.10;;;;;;;13.44;37.12;100262.50;1743625;82;20109;-70
2022/05/17 03:15:01;;;;;;;1.37;0.20;;;;;;;13.43;37.78;100258.72;1751296;80;21018;-69
2022/05/17 03:17:28;;;;;;;1.07;0.10;;;;;;;13.47;37.33;100249.73;1751402;81;21002;-69
2022/05/17 03:19:55;;;;;;;0.73;0.30;;;;;;;13.54;36.86;100239.83;1731863;80;21089;-69
2022/05/17 03:22:22;;;;;;;2.08;0.20;;;;;;;13.67;36.87;100233.09;1738373;80;21570;-69
2022/05/17 03:24:50;;;;;;;1.00;0.20;;;;;;;13.72;36.97;100250.70;1721806;81;21044;-69
2022/05/17 03:27:18;;;;;;;0.17;0.10;;;;;;;14.04;36.46;100251.31;1730645;81;21024;-69
2022/05/17 03:29:47;;;;;;;5.92;0.20;;;;;;;14.46;36.12;100248.48;1730689;81;20997;-69
2022/05/17 03:32:13;;;;;;;5.10;0.55;;;;;;;14.63;35.49;100242.64;1730496;81;21006;-70
2022/05/17 03:34:40;;;;;;;0.70;0.20;;;;;;;14.49;35.71;100249.41;1730560;81;21010;-69
2022/05/17 03:37:06;;;;;;;0.20;0.10;;;;;;;14.28;35.84;100247.05;1718646;81;21111;-69
2022/05/17 03:39:34;;;;;;;1.20;0.20;;;;;;;13.94;35.79;100245.08;1704252;81;21521;-70
2022/05/17 03:42:01;;;;;;;1.37;0.50;;;;;;;13.62;36.35;100245.79;1708207;81;21047;-69
2022/05/17 03:44:27;;;;;;;2.05;0.20;;;;;;;13.43;37.07;100252.03;1733580;81;20998;-69
2022/05/17 03:46:53;;;;;;;3.50;0.20;;;;;;;13.30;37.48;100258.22;1747544;82;21077;-69
2022/05/17 03:49:20;;;;;;;1.60;0.20;;;;;;;13.19;37.38;100260.16;1721629;82;21076;-69
2022/05/17 03:51:47;;;;;;;;;;;;;;;13.08;37.78;100248.22;1750980;80;21105;-69
2022/05/17 03:54:22;;;;;;;0.72;0.20;;;;;;;13.00;38.02;100253.80;1748591;82;20492;-68
2022/05/17 03:56:47;;;;;;;6.85;0.50;;;;;;;12.84;38.45;100249.66;1735402;81;21037;-69
2022/05/17 03:59:14;;;;;;;1.27;0.17;;;;;;;12.85;38.50;100249.98;1715736;83;21037;-71
2022/05/17 04:01:40;;;;;;;1.22;0.20;;;;;;;12.93;38.45;100246.27;1726542;81;20998;-70
2022/05/17 04:04:06;;;;;;;0.50;0.28;;;;;;;12.98;38.19;100237.13;1720899;81;21554;-70
2022/05/17 04:06:33;;;;;;;1.55;0.20;;;;;;;12.93;38.29;100248.42;1721679;81;21588;-70
2022/05/17 04:08:59;;;;;;;1.15;0.10;;;;;;;12.88;38.56;100245.54;1714869;81;21105;-70
2022/05/17 04:11:25;;;;;;;2.05;0.28;;;;;;;12.99;38.65;100243.58;1730731;81;21014;-70
2022/05/17 04:13:51;;;;;;;2.25;0.50;;;;;;;13.18;38.41;100245.12;1730650;81;21046;-70
2022/05/17 04:16:19;;;;;;;;;;;;;;;13.39;38.37;100240.07;1747040;81;21117;-71
2022/05/17 04:18:46;;;;;;;1.87;0.37;;;;;;;13.70;38.05;100232.69;1716121;81;20523;-70
2022/05/17 04:21:14;;;;;;;0.42;0.10;;;;;;;14.02;37.23;100228.74;1706842;81;21029;-69
2022/05/17 04:23:41;;;;;;;1.65;0.30;;;;;;;14.19;36.58;100227.20;1727750;81;21113;-70
2022/05/17 04:26:08;;;;;;;2.27;0.30;;;;;;;14.45;36.98;100221.88;1730810;81;21025;-70
2022/05/17 04:28:34;;;;;;;0.62;0.30;;;;;;;14.90;35.67;100221.78;1730943;81;21105;-71
2022/05/17 04:31:00;;;;;;;0.85;0.30;;;;;;;15.30;35.54;100220.09;1730667;81;21073;-70
2022/05/17 04:33:26;;;;;;;0.25;0.13;;;;;;;15.71;34.38;100215.92;1730948;81;21058;-69
2022/05/17 04:35:53;;;;;;;0.57;0.15;;;;;;;16.04;34.82;100219.55;1731115;81;21083;-70
2022/05/17 04:38:19;;;;;;;;;;;;;;;16.29;33.73;100222.12;1715480;82;21483;-70
2022/05/17 04:40:45;;;;;;;3.30;0.30;;;;;;;16.35;33.61;100217.70;1710526;84;20136;-71
2022/05/17 04:43:12;;;;;;;1.32;0.25;;;;;;;16.13;33.49;100225.44;1665359;85;21011;-68
2022/05/17 04:45:38;;;;;;;1.95;0.20;;;;;;;15.98;34.39;100225.03;1712117;81;21106;-70
2022/05/17 04:48:05;;;;;;;1.40;0.10;;;;;;;16.01;34.83;100224.05;1711140;81;21157;-69
2022/05/17 04:50:34;;;;;;;1.37;0.33;;;;;;;16.10;34.48;100223.20;1695207;82;21071;-70
2022/05/17 04:53:00;;;;;;;2.15;0.37;;;;;;;16.26;34.03;100228.48;1715741;82;21150;-70
2022/05/17 04:55:26;;;;;;;1.05;0.35;;;;;;;16.32;32.98;100216.27;1712697;82;21053;-70
2022/05/17 04:57:54;;;;;;;1.12;0.15;;;;;;;16.43;32.57;100209.28;1683005;84;21070;-71
2022/05/17 05:00:25;;;;;;;0.72;0.30;;;;;;;16.55;33.45;100216.84;1685449;84;21061;-70
2022/05/17 05:02:53;;;;;;;0.93;0.20;;;;;;;16.91;32.46;100216.93;1677285;84;21102;-71
2022/05/17 05:05:21;;;;;;;1.60;0.20;;;;;;;17.20;32.67;100213.03;1696159;84;21126;-70
2022/05/17 05:07:48;;;;;;;0.50;0.10;;;;;;;17.21;32.37;100210.62;1692225;84;21120;-71
2022/05/17 05:10:15;;;;;;;0.80;0.10;;;;;;;17.20;32.59;100213.03;1711010;83;21014;-72
2022/05/17 05:12:42;;;;;;;3.95;0.30;;;;;;;17.17;31.66;100206.77;1741102;82;21033;-70
2022/05/17 05:15:11;;;;;;;1.00;0.10;;;;;;;17.04;31.96;100194.34;1745915;82;21421;-70
2022/05/17 05:17:38;;;;;;;3.42;0.23;;;;;;;16.89;32.13;100205.58;1746508;82;21014;-70
2022/05/17 05:20:10;;;;;;;2.22;0.28;;;;;;;16.96;32.54;100203.59;1719089;82;21113;-70
2022/05/17 05:22:37;;;;;;;2.35;0.30;;;;;;;17.20;32.37;100208.45;1732396;82;21075;-70
2022/05/17 05:25:05;;;;;;;1.87;0.15;;;;;;;17.20;32.37;100208.45;1733601;82;21077;-70
2022/05/17 05:27:36;;;;;;;2.47;0.10;;;;;;;17.39;31.84;100197.02;1710306;82;21021;-70
2022/05/17 05:30:09;;;;;;;1.75;0.20;;;;;;;17.41;31.16;100202.17;1715352;82;21037;-71
2022/05/17 05:32:36;;;;;;;3.92;0.30;;;;;;;17.31;31.72;100205.47;1737437;81;21546;-71
2022/05/17 05:35:03;;;;;;;2.15;0.20;;;;;;;17.36;31.63;100210.95;1681420;83;21515;-72
2022/05/17 05:37:30;;;;;;;2.12;0.20;;;;;;;17.63;31.42;100205.88;1694672;83;21578;-72
2022/05/17 05:39:56;;;;;;;0.93;0.28;;;;;;;17.84;30.88;100188.27;1677265;83;21042;-72
2022/05/17 05:42:22;;;;;;;;;;;;;;;17.84;30.88;100188.27;1701763;84;21019;-70
2022/05/17 05:44:50;;;;;;;0.62;0.20;;;;;;;18.16;30.89;100185.59;1700295;84;20185;-71
2022/05/17 05:47:16;;;;;;;;;;;;;;;18.16;30.89;100185.59;1711288;83;21001;-72
2022/05/17 05:49:44;;;;;;;5.05;0.70;;;;;;;18.44;30.49;100188.27;1728640;82;20142;-72
2022/05/17 05:52:11;;;;;;;0.57;0.50;;;;;;;18.61;30.77;100183.39;1654465;85;21086;-71
2022/05/17 05:54:37;;;;;;;3.22;0.42;;;;;;;18.83;30.28;100196.47;1722883;81;21510;-72
2022/05/17 05:57:05;;;;;;;;;;;;;;;18.91;30.37;100193.91;1736128;81;21510;-70
2022/05/17 05:59:32;;;;;;;3.70;0.20;;;;;;;19.04;30.61;100204.88;1746282;82;20135;-71
2022/05/17 06:01:59;;;;;;;0.68;0.30;;;;;;;19.33;30.01;100200.72;1721310;82;21633;-72
2022/05/17 06:04:27;;;;;;;6.22;1.22;;;;;;;19.71;29.59;100199.03;1704171;84;21118;-71
2022/05/17 06:06:56;;;;;;;4.65;0.50;;;;;;;19.98;29.08;100191.78;1697828;83;21049;-71
2022/05/17 06:09:25;;;;;;;1.22;0.50;;;;;;;19.94;28.94;100187.14;1702116;83;21131;-70
2022/05/17 06:11:52;;;;;;;1.62;0.33;;;;;;;19.65;29.14;100191.39;1722424;83;20978;-71
2022/05/17 06:14:22;;;;;;;3.75;0.40;;;;;;;19.35;30.62;100199.94;1717159;83;21567;-71
2022/05/17 06:16:50;;;;;;;0.82;0.30;;;;;;;19.21;30.03;100190.84;1698915;83;21051;-73
2022/05/17 06:19:19;;;;;;;3.00;0.30;;;;;;;19.27;30.34;100197.13;1716084;83;21537;-71
2022/05/17 06:21:46;;;;;;;2.08;0.33;;;;;;;19.29;29.20;100194.16;1713613;83;21511;-72
2022/05/17 06:24:13;;;;;;;;;;;;;;;19.47;28.94;100187.10;1678165;83;21030;-71
2022/05/17 06:26:39;;;;;;;5.60;0.40;;;;;;;19.53;29.02;100186.09;1674290;85;20149;-71
2022/05/17 06:29:06;;;;;;;1.20;0.42;;;;;;;19.17;28.31;100185.63;1718141;82;21058;-74
2022/05/17 06:31:34;;;;;;;0.65;0.33;;;;;;;19.05;28.09;100182.22;1715241;83;21055;-72
2022/05/17 06:34:00;;;;;;;2.40;0.62;;;;;;;18.99;28.02;100170.53;1707455;84;21071;-71
2022/05/17 06:36:26;;;;;;;;;;;;;;;18.92;28.52;100173.12;1703869;83;21036;-72
2022/05/17 06:38:53;;;;;;;1.65;0.35;;;;;;;19.06;28.33;100164.94;1701646;84;20173;-73
2022/05/17 06:41:20;;;;;;;1.27;0.30;;;;;;;19.23;27.48;100167.08;1700619;84;21025;-71
2022/05/17 06:43:46;;;;;;;1.57;0.47;;;;;;;19.60;27.04;100165.64;1700228;83;21160;-74
2022/05/17 06:46:12;;;;;;;2.08;1.00;;;;;;;19.86;26.83;100151.09;1701067;83;21040;-72
2022/05/17 06:48:40;;;;;;;1.67;0.65;;;;;;;20.08;26.00;100156.44;1701544;83;21236;-72
2022/05/17 06:51:08;;;;;;;7.65;1.00;;;;;;;20.28;27.13;100156.63;1701261;83;21081;-72
2022/05/17 06:53:36;;;;;;;4.00;1.25;;;;;;;20.49;26.49;100158.16;1701210;84;21046;-72
2022/05/17 06:56:06;;;;;;;;;;;;;;;20.48;25.51;100153.29;1705646;83;21059;-72
2022/05/17 06:58:33;;;;;;;4.83;1.35;;;;;;;20.42;25.24;100156.49;1703157;83;20103;-71
2022/05/17 07:00:59;;;;;;;3.90;0.90;;;;;;;20.09;25.62;100148.07;1684788;83;21084;-72
2022/05/17 07:03:25;;;;;;;;;;;;;;;20.17;25.20;100150.84;1732575;81;21030;-72
2022/05/17 07:05:53;;;;;;;3.35;0.90;;;;;;;20.21;25.26;100153.31;1723364;81;20154;-73
2022/05/17 07:08:19;;;;;;;3.30;0.68;;;;;;;20.17;25.41;100152.20;1716971;81;21006;-72
2022/05/17 07:13:30;;;;;;;2.08;0.25;;;;;;;20.07;25.29;100138.04;1721074;81;21026;-72
2022/05/17 07:15:56;;;;;;;1.80;0.42;;;;;;;20.01;25.47;100137.17;1716059;81;21062;-73
2022/05/17 07:18:26;;;;;;;1.85;0.30;;;;;;;20.16;24.67;100133.80;1716817;82;21026;-72
2022/05/17 07:20:53;;;;;;;3.95;0.40;;;;;;;20.20;24.87;100127.34;1726226;81;21065;-73
2022/05/17 07:23:21;;;;;;;1.60;0.55;;;;;;;20.31;25.04;100125.00;1738698;81;20994;-72
2022/05/17 07:25:48;;;;;;;2.65;0.65;;;;;;;20.32;24.63;100129.87;1733890;81;21026;-71
2022/05/17 07:28:18;;;;;;;2.92;0.65;;;;;;;20.28;24.64;100120.09;1737335;81;21101;-72
2022/05/17 07:30:46;;;;;;;1.95;0.95;;;;;;;20.25;24.73;100113.02;1746437;82;21514;-70
2022/05/17 07:33:13;;;;;;;5.03;1.37;;;;;;;20.15;24.14;100120.52;1718167;81;21462;-70
2022/05/17 07:35:41;;;;;;;4.75;1.25;;;;;;;19.95;24.58;100114.41;1737903;81;20998;-70
2022/05/17 07:38:10;;;;;;;1.87;1.05;;;;;;;19.77;24.27;100110.16;1738982;81;21529;-71
2022/05/17 07:40:37;;;;;;;1.10;0.90;;;;;;;19.70;25.00;100112.21;1730053;81;21102;-71
2022/05/17 07:43:04;;;;;;;1.80;0.78;;;;;;;19.64;24.48;100102.69;1746466;82;21034;-71
2022/05/17 07:45:31;;;;;;;1.15;0.47;;;;;;;19.54;24.75;100109.34;1746276;81;20994;-71
2022/05/17 07:47:57;;;;;;;4.72;0.60;;;;;;;19.39;24.97;100114.58;1736642;81;21045;-70
2022/05/17 07:50:23;;;;;;;;;;;;;;;19.19;25.50;100105.67;1735804;81;21046;-70
2022/05/17 07:52:49;;;;;;;1.40;0.10;;;;;;;18.98;24.92;100100.55;1730502;81;20146;-72
2022/05/17 07:55:15;;;;;;;;;;;;;;;18.73;25.26;100105.84;1742478;81;21054;-71
2022/05/17 07:57:41;;;;;;;0.90;0.10;;;;;;;18.56;25.45;100111.27;1746355;82;20162;-71
2022/05/17 08:00:10;;;;;;;0.47;0.10;;;;;;;18.44;25.25;100097.87;1744635;81;21478;-70
2022/05/17 08:02:39;;;;;;;1.95;0.30;;;;;;;18.50;25.52;100102.81;1730740;81;21137;-71
2022/05/17 08:05:10;;;;;;;3.90;0.15;;;;;;;18.63;25.70;100105.71;1728181;81;21026;-72
2022/05/17 08:07:37;;;;;;;1.77;0.20;;;;;;;18.81;25.23;100097.34;1721035;81;21035;-71
2022/05/17 08:10:06;;;;;;;5.20;0.20;;;;;;;18.92;25.10;100098.85;1708907;84;21475;-71
2022/05/17 08:12:33;;;;;;;2.55;0.35;;;;;;;18.89;25.43;100095.29;1690209;82;21471;-70
2022/05/17 08:15:00;;;;;;;2.60;0.20;;;;;;;18.87;25.44;100091.48;1712420;82;21052;-72
2022/05/17 08:17:26;;;;;;;2.20;0.33;;;;;;;18.93;25.23;100086.97;1715342;82;21004;-72
2022/05/17 08:19:53;;;;;;;3.80;0.30;;;;;;;18.93;25.17;100083.75;1709622;82;21004;-71
2022/05/17 08:22:19;;;;;;;;;;;;;;;18.91;25.42;100094.50;1696800;82;21579;-72
2022/05/17 08:27:36;;;;;;;4.45;0.10;;;;;;;18.89;25.85;100073.14;1712374;82;21109;-73
2022/05/17 08:30:14;;;;;;;3.02;0.10;;;;;;;18.91;25.89;100074.25;1682732;85;20972;-71
2022/05/17 08:35:42;;;;;;;0.80;0.10;;;;;;;18.90;26.24;100075.33;1715312;81;21470;-71
2022/05/17 08:38:12;;;;;;;2.27;0.10;;;;;;;18.84;26.22;100075.26;1730475;81;21163;-71
2022/05/17 08:40:55;;;;;;;1.22;0.10;;;;;;;18.77;26.11;100073.23;1715327;84;21073;-70
2022/05/17 08:43:53;;;;;;;1.85;0.00;;;;;;;18.78;25.73;100050.58;1731078;81;21041;-71
2022/05/17 08:46:36;;;;;;;2.00;0.00;;;;;;;18.85;25.23;100055.30;1727604;81;21115;-70
2022/05/17 08:49:11;;;;;;;1.30;0.00;;;;;;;18.90;25.58;100055.08;1698155;83;21056;-71
2022/05/17 08:51:59;;;;;;;1.20;0.10;;;;;;;19.04;26.22;100050.92;1715325;82;21002;-73
2022/05/17 08:54:40;;;;;;;2.08;0.00;;;;;;;19.16;25.93;100035.41;1707262;81;21620;-70
2022/05/17 08:57:24;;;;;;;9.85;1.85;;;;;;;18.83;25.55;99981.00;1719859;80;20982;-72
2022/05/17 08:59:52;;;;;;;0.23;0.00;;;;;;;18.94;25.75;100038.66;1730699;80;21541;-71
2022/05/17 09:02:32;;;;;;;0.45;0.00;;;;;;;18.85;26.33;100032.86;1715592;81;20987;-71
2022/05/17 09:05:48;;;;;;;1.75;0.10;;;;;;;18.83;26.57;100034.45;1709612;82;21325;-72
2022/05/17 09:09:01;;;;;;;1.52;0.10;;;;;;;18.82;26.50;100036.89;1730547;81;21065;-71
2022/05/17 09:11:39;;;;;;;0.20;0.20;;;;;;;18.80;26.73;100028.22;1729508;80;21007;-71
2022/05/17 09:14:16;;;;;;;1.65;0.00;;;;;;;18.79;27.08;100039.23;1738716;80;21056;-72
2022/05/17 09:16:52;;;;;;;1.70;0.10;;;;;;;18.76;26.98;100020.83;1749902;80;20984;-71
2022/05/17 09:19:19;;;;;;;5.08;0.05;;;;;;;18.78;26.99;100009.23;1752993;80;21051;-73
2022/05/17 09:21:48;;;;;;;1.70;0.00;;;;;;;18.88;26.39;99991.06;1735299;82;21018;-71
2022/05/17 09:26:04;;;;;;;3.17;0.10;;;;;;;18.94;26.03;100008.41;1802069;79;22942;-72
2022/05/17 09:29:01;;;;;;;4.90;0.10;;;;;;;18.74;26.36;100005.41;1762078;80;21086;-71
2022/05/17 09:31:35;;;;;;;2.20;0.10;;;;;;;18.71;26.86;100014.84;1742243;80;21606;-71
2022/05/17 09:34:06;;;;;;;1.25;0.00;;;;;;;18.73;26.38;100011.90;1750824;80;20965;-71
2022/05/17 09:36:42;;;;;;;4.28;0.10;;;;;;;18.73;26.50;99990.30;1734538;81;21036;-73
2022/05/17 09:39:09;;;;;;;1.62;0.10;;;;;;;18.75;26.77;100007.87;1735522;81;21044;-71
2022/05/17 09:41:39;;;;;;;0.00;0.00;;;;;;;18.75;26.75;99998.42;1728401;81;20996;-73
2022/05/17 09:44:14;;;;;;;2.42;0.10;;;;;;;18.66;26.73;99999.92;1704225;80;21529;-71
2022/05/17 09:46:46;;;;;;;1.00;0.10;;;;;;;18.61;26.98;99999.33;1685120;84;21063;-72
2022/05/17 09:52:42;;;;;;;0.65;0.10;;;;;;;18.58;27.89;99982.81;1684946;84;21042;-71
2022/05/17 09:55:21;;;;;;;1.27;0.15;;;;;;;18.62;27.91;99982.59;1684086;83;21019;-71
2022/05/17 09:57:56;;;;;;;0.57;0.20;;;;;;;18.73;27.46;99980.85;1672908;84;21020;-71
2022/05/17 10:00:44;;;;;;;4.15;0.10;;;;;;;18.85;26.84;99977.51;1681842;83;21271;-71
2022/05/17 10:03:34;;;;;;;4.97;0.20;;;;;;;18.93;26.42;99970.33;1722080;82;21065;-71
2022/05/17 10:06:06;;;;;;;3.77;0.20;;;;;;;18.99;26.73;99973.36;1722621;82;21052;-72
2022/05/17 10:08:49;;;;;;;1.27;0.00;;;;;;;19.07;26.64;99962.64;1722724;82;21564;-71
2022/05/17 10:11:22;;;;;;;5.97;0.20;;;;;;;19.00;26.39;99972.82;1713141;80;21573;-72
2022/05/17 10:14:05;;;;;;;0.40;0.00;;;;;;;18.91;26.71;99979.73;1656492;85;21039;-73
2022/05/17 10:16:49;;;;;;;2.47;0.10;;;;;;;18.84;26.93;99963.73;1657038;84;21156;-72
2022/05/17 10:19:46;;;;;;;2.72;0.10;;;;;;;18.90;27.31;99962.72;1656387;85;21085;-72
2022/05/17 10:22:54;;;;;;;4.22;0.10;;;;;;;19.02;27.33;99963.92;1651117;83;21005;-72
2022/05/17 10:25:42;;;;;;;;;;;;;;;19.19;27.05;99947.11;1661761;85;21118;-72
2022/05/17 10:28:16;;;;;;;0.72;0.10;;;;;;;19.18;26.14;99937.91;1656963;85;20422;-72
2022/05/17 10:31:11;;;;;;;1.50;0.10;;;;;;;19.00;26.73;99937.70;1656449;85;21060;-71
2022/05/17 10:33:57;;;;;;;4.30;0.30;;;;;;;18.95;27.04;99941.19;1637859;86;20992;-73
2022/05/17 10:36:37;;;;;;;2.35;0.10;;;;;;;18.91;27.54;99929.77;1678794;84;21057;-71
2022/05/17 10:39:38;;;;;;;2.00;0.15;;;;;;;18.85;26.93;99938.35;1645179;85;21041;-71
2022/05/17 10:42:06;;;;;;;7.40;0.20;;;;;;;18.70;26.09;99933.55;1662527;85;21030;-72
2022/05/17 10:44:47;;;;;;;1.27;0.30;;;;;;;18.54;26.85;99925.83;1658010;84;21053;-72
2022/05/17 10:47:39;;;;;;;1.17;0.17;;;;;;;18.55;27.15;99926.09;1677876;84;21115;-70
2022/05/17 10:50:28;;;;;;;4.40;0.45;;;;;;;18.60;27.03;99911.31;1666398;84;21315;-72
2022/05/17 10:53:30;;;;;;;0.42;0.20;;;;;;;18.64;27.25;99931.33;1675617;84;21648;-71
2022/05/17 10:56:14;;;;;;;3.58;0.10;;;;;;;18.78;27.26;99919.63;1624030;85;21529;-71
2022/05/17 10:59:06;;;;;;;1.50;0.10;;;;;;;18.94;27.45;99919.83;1619480;85;21159;-71
2022/05/17 11:01:59;;;;;;;5.03;0.10;;;;;;;19.02;27.15;99913.45;1667543;84;21080;-73
2022/05/17 11:07:24;;;;;;;4.05;0.20;;;;;;;19.04;26.78;99909.95;1804239;78;22291;-71
2022/05/17 11:10:05;;;;;;;4.65;0.10;;;;;;;19.03;26.74;99901.55;1789852;80;21025;-73
2022/05/17 11:12:40;;;;;;;4.12;0.10;;;;;;;19.05;26.83;99904.81;1730439;80;21010;-71
2022/05/17 11:15:18;;;;;;;3.77;0.68;;;;;;;19.05;26.17;99899.95;1680409;84;21057;-71
2022/05/17 11:17:57;;;;;;;8.10;0.40;;;;;;;19.09;26.24;99903.77;1684359;85;21018;-73
2022/05/17 11:20:40;;;;;;;1.32;0.10;;;;;;;19.18;26.05;99892.79;1702204;84;21034;-71
2022/05/17 11:23:42;;;;;;;1.72;0.10;;;;;;;19.25;25.95;99908.26;1692142;85;21105;-72
2022/05/17 11:26:25;;;;;;;3.25;0.62;;;;;;;19.35;25.79;99872.95;1677595;84;21054;-70
2022/05/17 11:29:47;;;;;;;10.68;0.10;;;;;;;19.37;25.06;99872.14;1676419;84;21017;-71
2022/05/17 11:32:27;;;;;;;5.70;0.30;;;;;;;19.42;25.34;99872.17;1678285;84;21010;-71
2022/05/17 11:34:57;;;;;;;6.53;0.10;;;;;;;19.52;25.39;99897.13;1697241;84;21018;-72
2022/05/17 11:37:44;;;;;;;8.50;0.35;;;;;;;19.58;24.99;99877.98;1694545;84;21069;-69
2022/05/17 11:40:11;;;;;;;8.55;1.30;;;;;;;19.61;24.69;99878.02;1697695;84;21032;-71
2022/05/17 11:45:50;;;;;;;12.47;0.57;;;;;;;19.70;24.36;99859.41;1677726;84;21105;-71
2022/05/17 11:48:18;;;;;;;3.55;0.30;;;;;;;19.73;24.03;99858.92;1656242;85;21043;-73
2022/05/17 11:50:58;;;;;;;7.03;0.35;;;;;;;19.74;24.03;99863.23;1681854;85;21541;-72
2022/05/17 11:53:30;;;;;;;4.75;0.37;;;;;;;19.80;24.11;99864.92;1661566;84;21093;-72
2022/05/17 11:56:19;;;;;;;2.67;0.20;;;;;;;19.81;23.89;99862.48;1682199;84;21108;-72
2022/05/17 11:58:51;;;;;;;7.08;0.55;;;;;;;19.74;24.05;99846.50;1701864;84;21049;-74
2022/05/17 12:01:32;;;;;;;4.15;0.15;;;;;;;19.71;24.39;99851.03;1717200;83;21094;-70
2022/05/17 12:04:26;;;;;;;7.53;0.93;;;;;;;19.79;24.12;99834.89;1662043;85;21019;-70
2022/05/17 12:07:04;;;;;;;4.08;0.30;;;;;;;19.87;22.52;99837.63;1651082;86;21089;-70
2022/05/17 12:09:37;;;;;;;10.95;0.45;;;;;;;19.88;22.72;99835.22;1666063;85;21054;-71
2022/05/17 12:12:13;;;;;;;;;;;;;;;19.86;22.30;99836.02;1659455;85;21094;-71
2022/05/17 12:15:18;;;;;;;6.20;0.45;;;;;;;19.76;21.48;99829.47;1646901;86;20626;-73
2022/05/17 12:18:15;;;;;;;7.30;0.20;;;;;;;19.50;21.13;99841.98;1662383;85;21068;-71